Portada
METAR-TAF:

METAR-TAF

Aeroports :

Wangaratta, Austràlia

latitud: 36-24-57S, longitud: 146-18-25E, altitud: 154 m

Observació

L'informe es va fer fa 32 minuts, a les 02:00 UTC
Vent 7 kt del Sud-Oest, variant entre Sud/Sud-Oest i Nord/Nord-Oest
Temperatura 28°C
Humitat 45%
Pressió 1012 hPa
Visibilitat 10 km o més
Núvols disperses a una alçada de 4300 ft

METAR: YWGT 180200Z AUTO 23007KT 210V340 9999 // SCT043 28/15 Q1012

Hora: 13:32 (02:32 UTC)

Pronòstic

L'informe es va fer fa 1 hora i 13 minuts, a les 01:19 UTC
Pronòstic vàlid del 18 a les 02 UTC al 18 a les 14 UTC
Vent 8 kt del Sud-Oest
Visibilitat 10 km o més
Escasses núvols a una alçada de 3500 ft
xàfecs de pluja
A partir de les 18 a les 0900 UTC
Vent 5 kt del Sud/Sud-Oest
Visibilitat 10 km o més
sense núvols per sota de 1500 mi sense presència de cumulonimbus.

TAF: YWGT 180119Z 1802/1814 22008KT 9999 -SHRA FEW035 FM180900 20005KT CAVOK

Observacions i pronòstics meteorològics de més de 4000 aeroports (METAR i TAF).

Les estacions disponibles són els punts grocs i vermells al mapa.

Posi el ratolí al punt desitjat per veure el nom de l'estació.

Feu clic per veure les observacions i els pronòstics meteorològics.

Per canviar el mapa: feu clic els botons verds amb una creu de color negre per apropar; al botó verd amb un guió per allunyar la imatge; o en les fletxes verdes per a mapes adjacents.


METAR-TAF: